CCRH weather

CLOSED Campbellton (Regional Hospital) Heliport
Campbellton, New Brunswick, Canada

Public forecast

Using degrees Celsius for public forecast. Weather courtesy of forecast.io.

Closest aviation weather report (METAR) to Campbellton (Regional Hospital) Heliport

Closest report is Bathurst Airport, 43.3 nm (80.2 km) ESE. Retrieved 2020/05/26 06:00 UTC (4 minutes ago):

CZBF 260600Z AUTO 19003KT 150V210 9SM OVC085 16/10 A3005 RMK SLP178

Closest aviation forecast (TAF) to Campbellton (Regional Hospital) Heliport

Forecast is more than 6 hours old.

Closest forecast is Bathurst Airport, 43.3 nm (80.2 km) ESE. Retrieved 2020/05/25 20:00 UTC (10 hours ago):

TAF CZBF 251940Z 2520/2603 18012G22KT P6SM FEW240 BECMG 2520/2522 22012G22KT FM260200 22012KT P6SM BKN120 RMK FCST BASED ON AUTO OBS NXT FCST WILL BE ISSUED AT 260845Z